Time;durP1;ratioP1;P1;durP2;ratioP2;P2;SDS_P1;SDS_P2;PMS_P1;PMS_P2;Temp;Humidity;BMP_temperature;BMP_pressure;BME280_temperature;BME280_humidity;BME280_pressure;Samples;Min_cycle;Max_cycle;Signal;HPM_P1;HPM_P2
2021/03/12 00:00:20;;;;;;;13.13;9.53;;;;;;;-2.26;64.45;100065.70;1783551;80;21607;-62
2021/03/12 00:02:48;;;;;;;17.87;9.07;;;;;;;-2.22;64.42;100056.98;1788805;79;22436;-61
2021/03/12 00:05:16;;;;;;;15.83;10.73;;;;;;;-2.24;64.36;100044.45;1822224;78;21141;-61
2021/03/12 00:07:43;;;;;;;12.07;7.47;;;;;;;-2.25;64.30;100038.34;1785237;80;21192;-60
2021/03/12 00:10:18;;;;;;;14.83;9.80;;;;;;;-2.24;64.21;100036.05;1781323;80;21118;-61
2021/03/12 00:12:46;;;;;;;15.77;9.23;;;;;;;-2.24;64.15;100037.37;1772884;80;21185;-62
2021/03/12 00:15:19;;;;;;;13.17;9.13;;;;;;;-2.27;64.32;100043.46;1788834;78;21209;-60
2021/03/12 00:17:48;;;;;;;14.30;10.08;;;;;;;-2.26;64.32;100028.00;1768949;79;21185;-60
2021/03/12 00:20:23;;;;;;;29.27;11.90;;;;;;;-2.23;64.09;100026.34;1785767;80;21075;-59
2021/03/12 00:22:51;;;;;;;15.00;10.53;;;;;;;-2.15;63.87;100026.85;1821526;77;21041;-60
2021/03/12 00:25:36;;;;;;;24.10;10.43;;;;;;;-2.14;63.72;100024.07;1822405;78;21643;-60
2021/03/12 00:28:05;;;;;;;12.00;9.30;;;;;;;-2.15;63.65;100020.27;1822277;78;22279;-59
2021/03/12 00:30:33;;;;;;;18.53;13.17;;;;;;;-2.20;63.64;100011.53;1822333;78;21589;-59
2021/03/12 00:33:01;;;;;;;21.83;12.53;;;;;;;-2.17;63.50;100003.33;1810399;78;21528;-60
2021/03/12 00:35:29;;;;;;;19.90;10.77;;;;;;;-2.15;63.41;100003.14;1819365;78;21133;-60
2021/03/12 00:37:57;;;;;;;16.53;12.47;;;;;;;-2.12;63.23;100011.57;1737902;81;20955;-61
2021/03/12 00:40:29;;;;;;;16.13;12.13;;;;;;;-2.11;63.25;100011.88;1799000;79;21201;-61
2021/03/12 00:42:56;;;;;;;13.80;9.37;;;;;;;-2.15;63.32;100012.36;1798604;79;21536;-60
2021/03/12 00:45:28;;;;;;;37.97;11.90;;;;;;;-2.16;63.23;99993.61;1798338;79;20976;-61
2021/03/12 00:48:00;;;;;;;13.93;9.83;;;;;;;-2.20;63.02;99991.28;1798082;79;21436;-61
2021/03/12 00:50:32;;;;;;;14.60;9.87;;;;;;;-2.17;62.81;99997.23;1810235;78;21709;-60
2021/03/12 00:53:00;;;;;;;17.10;11.50;;;;;;;-2.21;62.91;99987.52;1799510;78;22108;-60
2021/03/12 00:55:27;;;;;;;11.00;9.87;;;;;;;-2.15;62.96;99992.11;1802439;78;21125;-60
2021/03/12 00:57:55;;;;;;;12.47;9.73;;;;;;;-2.19;62.88;99977.62;1826001;78;21011;-61
2021/03/12 01:00:26;;;;;;;17.73;11.30;;;;;;;-2.20;62.71;99972.02;1801459;78;21575;-62
2021/03/12 01:02:54;;;;;;;10.57;8.43;;;;;;;-2.25;62.65;99962.45;1808956;78;21174;-61
2021/03/12 01:05:22;;;;;;;18.50;11.97;;;;;;;-2.24;62.64;99959.66;1760019;81;21397;-60
2021/03/12 01:07:49;;;;;;;23.47;12.07;;;;;;;-2.23;62.57;99954.73;1771553;81;21081;-62
2021/03/12 01:10:20;;;;;;;19.73;12.23;;;;;;;-2.22;62.60;99946.34;1772052;79;21493;-61
2021/03/12 01:12:48;;;;;;;11.40;8.97;;;;;;;-2.21;62.55;99949.31;1795101;79;21568;-61
2021/03/12 01:15:18;;;;;;;12.83;8.93;;;;;;;-2.25;62.49;99950.11;1797238;79;21152;-61
2021/03/12 01:17:46;;;;;;;18.43;11.77;;;;;;;-2.26;62.48;99940.58;1802289;78;21395;-61
2021/03/12 01:20:29;;;;;;;18.10;10.77;;;;;;;-2.26;62.38;99920.83;1787949;80;21141;-60
2021/03/12 01:22:59;;;;;;;16.57;9.30;;;;;;;-2.29;62.41;99931.66;1787084;80;21121;-60
2021/03/12 01:25:39;;;;;;;18.73;11.23;;;;;;;-2.32;62.58;99926.73;1765427;80;21030;-59
2021/03/12 01:28:08;;;;;;;15.33;11.43;;;;;;;-2.35;62.74;99922.28;1794128;80;21184;-60
2021/03/12 01:30:40;;;;;;;15.90;9.73;;;;;;;-2.34;62.85;99913.38;1785845;79;21386;-60
2021/03/12 01:33:18;;;;;;;9.90;6.47;;;;;;;-2.35;63.00;99921.77;1836131;75;26851;-59
2021/03/12 01:35:45;;;;;;;22.67;12.17;;;;;;;-2.40;62.98;99916.16;1741484;82;20974;-59
2021/03/12 01:38:13;;;;;;;13.37;9.73;;;;;;;-2.46;63.17;99904.97;1748810;82;21370;-59
2021/03/12 01:40:47;;;;;;;18.53;11.00;;;;;;;-2.44;63.14;99906.94;1781174;80;20966;-61
2021/03/12 01:43:15;;;;;;;13.03;7.78;;;;;;;-2.43;63.00;99902.00;1761970;79;20998;-60
2021/03/12 01:45:46;;;;;;;23.80;10.93;;;;;;;-2.45;63.03;99918.97;1798419;79;20990;-60
2021/03/12 01:48:17;;;;;;;15.60;10.20;;;;;;;-2.46;63.12;99921.27;1804150;79;20987;-58
2021/03/12 01:50:49;;;;;;;18.33;8.80;;;;;;;-2.47;63.19;99923.56;1817034;79;21258;-60
2021/03/12 01:53:18;;;;;;;16.17;10.57;;;;;;;-2.49;63.43;99930.29;1811277;79;21046;-59
2021/03/12 01:55:45;;;;;;;15.23;9.23;;;;;;;-2.54;63.46;99937.84;1784884;80;21007;-60
2021/03/12 01:58:14;;;;;;;19.10;10.33;;;;;;;-2.54;63.51;99941.80;1784953;80;21090;-59
2021/03/12 02:00:43;;;;;;;11.10;8.77;;;;;;;-2.59;63.63;99938.84;1784630;80;21214;-59
2021/03/12 02:03:20;;;;;;;11.25;9.58;;;;;;;-2.57;63.78;99923.70;1785400;79;22047;-60
2021/03/12 02:05:49;;;;;;;;;;;;;;;-2.62;63.97;99924.66;1781979;80;21622;-59
2021/03/12 02:08:17;;;;;;;13.97;11.70;;;;;;;-2.62;63.91;99926.47;1793523;79;20547;-59
2021/03/12 02:10:48;;;;;;;10.63;9.53;;;;;;;-2.65;63.99;99903.45;1783735;80;20993;-61
2021/03/12 02:13:33;;;;;;;20.60;11.40;;;;;;;-2.65;64.09;99882.39;1784999;80;21153;-61
2021/03/12 02:16:14;;;;;;;10.37;6.83;;;;;;;-2.64;64.17;99876.63;1784975;80;21363;-61
2021/03/12 02:19:15;;;;;;;22.47;8.97;;;;;;;-2.61;64.16;99905.26;1757103;80;21002;-60
2021/03/12 02:21:57;;;;;;;12.77;8.70;;;;;;;-2.66;64.16;99889.12;1754263;80;21654;-59
2021/03/12 02:24:38;;;;;;;12.43;9.47;;;;;;;-2.69;64.40;99882.38;1748910;80;21175;-59
2021/03/12 02:27:14;;;;;;;15.40;7.17;;;;;;;-2.73;64.46;99864.41;1765630;80;21141;-60
2021/03/12 02:29:53;;;;;;;20.30;10.93;;;;;;;-2.75;64.51;99873.80;1774718;80;21442;-58
2021/03/12 02:32:39;;;;;;;12.07;7.60;;;;;;;-2.71;64.47;99868.54;1753671;81;21201;-59
2021/03/12 02:35:16;;;;;;;23.23;10.17;;;;;;;-2.74;64.58;99868.05;1727878;80;21054;-63
2021/03/12 02:37:44;;;;;;;15.80;9.63;;;;;;;-2.74;64.66;99869.36;1734771;80;21176;-60
2021/03/12 02:40:13;;;;;;;18.60;11.27;;;;;;;-2.73;64.55;99866.55;1784732;80;21832;-60
2021/03/12 02:42:42;;;;;;;12.63;7.40;;;;;;;-2.73;64.42;99848.61;1783533;80;21384;-60
2021/03/12 02:45:11;;;;;;;11.67;8.40;;;;;;;-2.72;64.27;99853.73;1715144;80;21220;-59
2021/03/12 02:47:40;;;;;;;15.47;8.97;;;;;;;-2.71;64.16;99858.50;1755981;80;21193;-60
2021/03/12 02:50:21;;;;;;;10.80;7.70;;;;;;;-2.68;64.04;99853.73;1847129;76;26977;-61
2021/03/12 02:52:50;;;;;;;12.03;6.63;;;;;;;-2.77;64.22;99852.06;1791953;79;20971;-61
2021/03/12 02:55:19;;;;;;;10.97;7.23;;;;;;;-2.82;64.38;99863.56;1789864;79;22341;-60
2021/03/12 02:57:54;;;;;;;16.97;10.93;;;;;;;-2.85;64.60;99844.16;1786687;77;21587;-60
2021/03/12 03:00:24;;;;;;;21.10;10.07;;;;;;;-2.84;64.55;99844.98;1792266;79;20999;-61
2021/03/12 03:03:12;;;;;;;13.10;9.80;;;;;;;-2.86;64.40;99834.61;1814458;79;20920;-60
2021/03/12 03:05:44;;;;;;;9.35;7.28;;;;;;;-2.88;64.41;99848.92;1762299;79;21018;-60
2021/03/12 03:08:12;;;;;;;10.33;6.33;;;;;;;-2.94;64.38;99830.66;1796585;79;21357;-60
2021/03/12 03:10:40;;;;;;;18.27;8.07;;;;;;;-2.95;64.50;99833.43;1784720;79;21637;-60
2021/03/12 03:13:09;;;;;;;8.77;6.57;;;;;;;-2.93;64.38;99827.53;1784913;80;21539;-62
2021/03/12 03:15:38;;;;;;;20.80;9.90;;;;;;;-2.91;64.06;99826.86;1781919;80;21077;-59
2021/03/12 03:18:08;;;;;;;16.97;9.43;;;;;;;-2.95;64.06;99827.68;1784392;80;21575;-59
2021/03/12 03:20:38;;;;;;;10.93;6.87;;;;;;;-2.93;63.93;99807.80;1783463;80;21196;-60
2021/03/12 03:23:06;;;;;;;13.67;7.90;;;;;;;-2.96;63.95;99812.05;1767036;80;21165;-63
2021/03/12 03:25:35;;;;;;;12.77;8.30;;;;;;;-2.99;64.04;99795.28;1714817;80;21141;-61
2021/03/12 03:28:05;;;;;;;10.50;7.40;;;;;;;-2.99;64.01;99801.36;1783337;79;21188;-61
2021/03/12 03:30:34;;;;;;;12.17;7.63;;;;;;;-2.99;64.14;99820.27;1753906;81;21185;-60
2021/03/12 03:33:06;;;;;;;20.57;9.77;;;;;;;-2.96;64.13;99807.61;1754088;81;22092;-59
2021/03/12 03:35:35;;;;;;;10.83;7.80;;;;;;;-2.96;63.90;99805.47;1753815;81;21431;-61
2021/03/12 03:38:04;;;;;;;12.03;6.80;;;;;;;-2.96;63.91;99797.58;1754486;80;21662;-60
2021/03/12 03:40:32;;;;;;;14.00;8.07;;;;;;;-2.94;63.80;99795.62;1675267;84;21188;-59
2021/03/12 03:43:01;;;;;;;23.27;10.03;;;;;;;-2.96;63.74;99785.25;1700418;83;21165;-59
2021/03/12 03:45:31;;;;;;;16.03;8.83;;;;;;;-2.98;63.88;99781.14;1692088;83;21242;-59
2021/03/12 03:48:00;;;;;;;14.30;8.13;;;;;;;-2.96;63.74;99772.58;1705396;83;21030;-59
2021/03/12 03:50:28;;;;;;;9.13;6.93;;;;;;;-2.97;63.81;99774.39;1704287;82;21094;-60
2021/03/12 03:52:56;;;;;;;14.27;7.07;;;;;;;-2.99;63.84;99775.55;1720396;83;21043;-60
2021/03/12 03:55:27;;;;;;;12.93;7.87;;;;;;;-3.03;64.03;99778.17;1702831;84;21261;-58
2021/03/12 03:57:58;;;;;;;6.47;4.47;;;;;;;-3.05;63.92;99750.70;1702151;83;21195;-60
2021/03/12 04:00:26;;;;;;;16.70;8.60;;;;;;;-3.04;63.90;99760.25;1713469;83;21606;-60
2021/03/12 04:02:57;;;;;;;17.47;7.27;;;;;;;-3.03;63.89;99761.08;1722555;82;21172;-59
2021/03/12 04:05:25;;;;;;;18.57;9.50;;;;;;;-3.05;63.89;99760.39;1737299;81;21216;-60
2021/03/12 04:07:54;;;;;;;19.47;9.63;;;;;;;-3.07;63.77;99750.85;1704608;84;21238;-59
2021/03/12 04:10:23;;;;;;;11.83;7.90;;;;;;;-3.06;63.80;99764.83;1688530;83;21868;-60
2021/03/12 04:12:51;;;;;;;17.33;8.60;;;;;;;-3.04;63.62;99762.05;1685214;83;21171;-61
2021/03/12 04:15:19;;;;;;;14.50;9.53;;;;;;;-3.07;63.48;99761.38;1711800;83;21657;-60
2021/03/12 04:17:48;;;;;;;13.07;8.17;;;;;;;-3.09;63.67;99783.58;1711778;83;21022;-60
2021/03/12 04:20:16;;;;;;;13.10;8.23;;;;;;;-3.16;63.86;99778.61;1708241;83;21202;-61
2021/03/12 04:22:47;;;;;;;17.73;9.33;;;;;;;-3.21;64.01;99775.62;1686403;84;22264;-60
2021/03/12 04:25:15;;;;;;;15.60;9.20;;;;;;;-3.24;64.10;99779.42;1653952;84;21048;-60
2021/03/12 04:27:43;;;;;;;16.17;9.67;;;;;;;-3.25;64.23;99789.60;1695054;83;21180;-60
2021/03/12 04:30:13;;;;;;;10.33;8.23;;;;;;;-3.24;64.35;99792.56;1720166;83;21167;-61
2021/03/12 04:32:41;;;;;;;12.27;8.20;;;;;;;-3.29;64.43;99774.30;1718363;82;21124;-62
2021/03/12 04:35:10;;;;;;;12.33;8.83;;;;;;;-3.30;64.64;99765.59;1691929;83;21427;-61
2021/03/12 04:37:38;;;;;;;14.67;8.40;;;;;;;-3.30;64.56;99765.59;1626518;86;21193;-61
2021/03/12 04:40:09;;;;;;;14.93;7.87;;;;;;;-3.29;64.67;99768.55;1718344;83;21148;-60
2021/03/12 04:42:38;;;;;;;9.30;6.53;;;;;;;-3.32;64.89;99772.83;1721842;81;21849;-61
2021/03/12 04:45:08;;;;;;;14.33;9.13;;;;;;;-3.34;64.94;99768.20;1701021;83;21142;-61
2021/03/12 04:47:37;;;;;;;13.30;9.43;;;;;;;-3.32;64.87;99774.63;1721520;83;21227;-63
2021/03/12 04:50:09;;;;;;;11.20;8.20;;;;;;;-3.36;64.97;99793.85;1693620;83;21173;-62
2021/03/12 04:52:38;;;;;;;10.73;7.87;;;;;;;-3.42;65.04;99796.28;1739397;81;21579;-61
2021/03/12 04:55:08;;;;;;;12.23;8.37;;;;;;;-3.42;64.91;99810.25;1669931;84;21184;-62
2021/03/12 04:57:36;;;;;;;13.63;8.50;;;;;;;-3.42;64.82;99808.94;1657120;85;21166;-61
2021/03/12 05:00:09;;;;;;;12.73;8.90;;;;;;;-3.45;64.87;99811.06;1668645;85;21449;-63
2021/03/12 05:02:38;;;;;;;14.77;8.93;;;;;;;-3.43;64.93;99796.77;1692650;84;21210;-63
2021/03/12 05:05:10;;;;;;;16.53;8.93;;;;;;;-3.37;64.81;99792.69;1695169;84;21165;-60
2021/03/12 05:07:39;;;;;;;21.87;9.00;;;;;;;-3.38;64.75;99794.48;1658789;84;21671;-64
2021/03/12 05:10:31;;;;;;;13.93;8.33;;;;;;;-3.32;64.72;99791.23;1841977;75;26957;-58
2021/03/12 05:13:01;;;;;;;14.60;8.10;;;;;;;-3.41;64.54;99805.33;1808960;77;21133;-62
2021/03/12 05:15:30;;;;;;;17.50;9.67;;;;;;;-3.44;64.68;99803.48;1790464;77;22269;-60
2021/03/12 05:17:58;;;;;;;13.73;8.27;;;;;;;-3.51;64.72;99801.99;1816386;79;21046;-64
2021/03/12 05:20:27;;;;;;;13.50;10.20;;;;;;;-3.51;64.78;99784.91;1817108;79;20968;-61
2021/03/12 05:22:55;;;;;;;13.90;10.03;;;;;;;-3.55;64.71;99798.83;1817123;79;20971;-61
2021/03/12 05:25:23;;;;;;;16.63;9.43;;;;;;;-3.50;64.70;99805.45;1817161;79;21031;-60
2021/03/12 05:27:50;;;;;;;15.70;11.87;;;;;;;-3.45;64.54;99796.60;1783797;79;21334;-60
2021/03/12 05:30:21;;;;;;;18.17;9.93;;;;;;;-3.44;64.45;99807.42;1817060;79;21181;-61
2021/03/12 05:32:51;;;;;;;15.70;8.07;;;;;;;-3.43;64.35;99798.08;1816431;79;21019;-63
2021/03/12 05:35:19;;;;;;;18.60;9.83;;;;;;;-3.44;64.18;99793.80;1805876;79;22241;-63
2021/03/12 05:37:48;;;;;;;10.30;6.83;;;;;;;-3.44;64.17;99795.59;1785019;80;21606;-62
2021/03/12 05:40:16;;;;;;;18.43;10.93;;;;;;;-3.50;64.15;99778.64;1754324;80;21208;-61
2021/03/12 05:42:45;;;;;;;15.27;9.33;;;;;;;-3.53;64.14;99741.69;1784897;80;21168;-62
2021/03/12 05:45:13;;;;;;;11.27;9.33;;;;;;;-3.46;64.16;99745.00;1786142;79;20979;-62
2021/03/12 05:47:46;;;;;;;20.68;10.85;;;;;;;-3.46;64.07;99747.63;1784135;79;27015;-61
2021/03/12 05:50:20;;;;;;;17.77;9.40;;;;;;;-3.43;63.89;99756.02;1784896;80;21185;-62
2021/03/12 05:52:48;;;;;;;12.07;7.87;;;;;;;-3.43;63.51;99752.07;1784933;80;21162;-61
2021/03/12 05:55:18;;;;;;;23.00;6.60;;;;;;;-3.45;63.40;99763.74;1798725;79;21165;-62
2021/03/12 05:57:49;;;;;;;13.47;9.47;;;;;;;-3.48;63.47;99781.95;1816131;79;20975;-62
2021/03/12 06:00:20;;;;;;;13.43;9.87;;;;;;;-3.46;63.46;99769.97;1785902;79;21219;-60
2021/03/12 06:02:51;;;;;;;20.13;9.80;;;;;;;-3.47;63.30;99767.01;1813842;78;21066;-61
2021/03/12 06:05:26;;;;;;;28.33;9.77;;;;;;;-3.45;62.70;99782.94;1732468;82;21178;-62
2021/03/12 06:07:54;;;;;;;18.70;9.33;;;;;;;-3.40;62.48;99767.52;1720475;83;21065;-62
2021/03/12 06:10:22;;;;;;;15.57;8.50;;;;;;;-3.38;62.44;99752.91;1705223;82;21001;-61
2021/03/12 06:12:52;;;;;;;18.37;9.33;;;;;;;-3.39;62.12;99756.03;1689726;82;21025;-60
2021/03/12 06:15:19;;;;;;;24.30;9.83;;;;;;;-3.39;61.96;99759.14;1718053;82;21171;-60
2021/03/12 06:17:49;;;;;;;12.83;8.10;;;;;;;-3.40;61.87;99759.63;1653605;84;21264;-61
2021/03/12 06:20:20;;;;;;;15.73;8.93;;;;;;;-3.38;61.96;99752.42;1741853;82;21175;-61
2021/03/12 06:22:55;;;;;;;21.93;9.73;;;;;;;-3.33;61.78;99754.08;1718294;83;21200;-61
2021/03/12 06:25:25;;;;;;;18.57;8.10;;;;;;;-3.32;61.55;99759.68;1749739;82;21188;-60
2021/03/12 06:28:19;;;;;;;12.63;7.57;;;;;;;-3.24;61.45;99753.61;1883102;76;27003;-62
2021/03/12 06:31:26;;;;;;;12.27;8.43;;;;;;;-3.27;61.52;99748.19;1781800;80;20983;-62
2021/03/12 06:34:11;;;;;;;10.20;7.70;;;;;;;-3.24;61.50;99736.03;1841737;77;21737;-60
2021/03/12 06:36:43;;;;;;;13.77;8.43;;;;;;;-3.14;61.12;99743.78;1758390;77;21352;-60
2021/03/12 06:39:12;;;;;;;26.43;9.77;;;;;;;-3.13;60.95;99726.53;1828234;77;21005;-62
2021/03/12 06:41:51;;;;;;;11.33;7.90;;;;;;;-3.11;60.89;99724.55;1819658;77;20991;-61
2021/03/12 06:44:30;;;;;;;18.30;8.73;;;;;;;-3.19;60.93;99706.13;1820457;78;21030;-62
2021/03/12 06:46:59;;;;;;;21.17;9.23;;;;;;;-3.15;61.11;99703.98;1820669;78;21440;-60
2021/03/12 06:49:27;;;;;;;22.97;9.60;;;;;;;-3.13;61.07;99704.17;1816709;77;20983;-61
2021/03/12 06:52:00;;;;;;;17.07;9.13;;;;;;;-3.07;60.75;99695.31;1842259;77;20956;-61
2021/03/12 06:54:30;;;;;;;24.03;9.50;;;;;;;-3.05;60.34;99699.41;1854299;77;21085;-61
2021/03/12 06:56:59;;;;;;;16.80;9.53;;;;;;;-3.10;60.55;99702.52;1829542;77;21533;-61
2021/03/12 06:59:32;;;;;;;23.77;11.80;;;;;;;-3.04;60.71;99703.69;1819339;78;21579;-61
2021/03/12 07:02:06;;;;;;;36.07;11.33;;;;;;;-3.01;60.52;99700.72;1818965;78;21217;-61
2021/03/12 07:04:40;;;;;;;18.37;8.57;;;;;;;-3.06;60.44;99714.85;1822692;77;21164;-62
2021/03/12 07:07:15;;;;;;;16.00;9.47;;;;;;;-3.07;60.58;99708.77;1736622;80;21121;-62
2021/03/12 07:09:56;;;;;;;18.93;9.27;;;;;;;-3.07;60.61;99715.34;1721386;80;21172;-62
2021/03/12 07:12:46;;;;;;;;;;;;;;;-3.01;60.44;99705.16;1750517;82;23626;-63
2021/03/12 07:15:16;;;;;;;32.00;10.83;;;;;;;-3.05;60.49;99696.77;1734044;82;20169;-60
2021/03/12 07:17:45;;;;;;;10.20;6.63;;;;;;;-3.04;60.49;99683.96;1743747;81;21133;-62
2021/03/12 07:20:23;;;;;;;15.50;9.10;;;;;;;-2.96;60.41;99671.30;1787763;80;21148;-62
2021/03/12 07:22:51;;;;;;;15.97;7.90;;;;;;;-2.95;60.30;99688.23;1788414;80;21279;-62
2021/03/12 07:25:22;;;;;;;15.87;8.80;;;;;;;-2.90;60.26;99677.22;1788143;80;21188;-61
2021/03/12 07:27:51;;;;;;;16.03;9.03;;;;;;;-2.92;60.33;99664.22;1790078;80;21197;-62
2021/03/12 07:30:21;;;;;;;12.63;7.53;;;;;;;-2.85;60.19;99663.91;1744695;81;21570;-64
2021/03/12 07:32:53;;;;;;;24.57;11.17;;;;;;;-2.86;59.88;99656.99;1702861;81;21160;-62
2021/03/12 07:35:32;;;;;;;15.27;8.30;;;;;;;-2.83;60.04;99644.81;1837374;77;24994;-61
2021/03/12 07:38:10;;;;;;;17.83;9.43;;;;;;;-2.88;59.97;99667.38;1748540;82;21663;-61
2021/03/12 07:40:40;;;;;;;17.77;7.73;;;;;;;-2.89;60.12;99661.28;1716514;82;21236;-61
2021/03/12 07:43:09;;;;;;;22.37;9.00;;;;;;;-2.90;60.41;99665.38;1729201;83;21016;-62
2021/03/12 07:45:41;;;;;;;16.57;8.33;;;;;;;-2.83;60.42;99670.33;1715068;83;21019;-62
2021/03/12 07:48:11;;;;;;;17.10;8.33;;;;;;;-2.83;60.21;99669.02;1730228;83;21049;-60
2021/03/12 07:50:43;;;;;;;12.10;7.77;;;;;;;-2.82;60.26;99674.09;1736839;81;21252;-63
2021/03/12 07:53:13;;;;;;;16.47;8.80;;;;;;;-2.75;60.24;99681.67;1739433;81;21303;-61
2021/03/12 07:55:50;;;;;;;18.60;9.77;;;;;;;-2.70;60.00;99667.53;1740234;82;21605;-62
2021/03/12 07:58:47;;;;;;;17.60;7.40;;;;;;;-2.70;60.06;99631.99;1724270;82;21057;-61
2021/03/12 08:01:19;;;;;;;25.05;8.83;;;;;;;-2.66;59.97;99620.14;1723055;81;21168;-63
2021/03/12 08:03:50;;;;;;;23.30;8.93;;;;;;;-2.65;59.80;99620.48;1749262;82;21146;-60
2021/03/12 08:06:29;;;;;;;14.77;8.77;;;;;;;-2.67;59.82;99604.50;1758984;81;21425;-63
2021/03/12 08:09:03;;;;;;;18.63;8.60;;;;;;;-2.65;59.96;99628.86;1752465;81;21169;-62
2021/03/12 08:11:53;;;;;;;32.93;10.20;;;;;;;-2.56;59.95;99612.55;1889165;76;25486;-61
2021/03/12 08:14:23;;;;;;;19.97;7.07;;;;;;;-2.60;59.75;99633.63;1857711;77;21033;-59
2021/03/12 08:17:04;;;;;;;19.02;6.55;;;;;;;-2.60;59.75;99631.81;1859944;77;21904;-62
2021/03/12 08:19:37;;;;;;;12.03;8.50;;;;;;;-2.56;59.87;99649.41;1858421;77;21107;-62
2021/03/12 08:22:34;;;;;;;13.97;8.57;;;;;;;-2.56;59.91;99652.05;1757126;81;21081;-67
2021/03/12 08:25:05;;;;;;;20.83;10.10;;;;;;;-2.54;60.02;99643.50;1839701;77;20988;-60
2021/03/12 08:27:46;;;;;;;14.10;7.57;;;;;;;-2.50;59.92;99639.53;1844738;77;20979;-62
2021/03/12 08:30:40;;;;;;;11.07;7.20;;;;;;;-2.44;59.90;99623.87;1757659;81;21158;-61
2021/03/12 08:33:23;;;;;;;10.93;7.27;;;;;;;-2.40;59.83;99627.80;1775968;80;21043;-62
2021/03/12 08:35:56;;;;;;;25.13;9.60;;;;;;;-2.38;59.95;99623.70;1781741;80;20987;-62
2021/03/12 08:38:43;;;;;;;45.67;11.70;;;;;;;-2.36;59.80;99604.13;1788368;80;21166;-63
2021/03/12 08:41:19;;;;;;;14.67;8.57;;;;;;;-2.38;59.83;99606.09;1779127;80;21631;-62
2021/03/12 08:44:00;;;;;;;16.67;8.00;;;;;;;-2.33;59.74;99619.57;1798154;78;22674;-62
2021/03/12 08:46:46;;;;;;;21.50;9.73;;;;;;;-2.33;59.74;99599.82;1824273;78;21622;-61
2021/03/12 08:49:16;;;;;;;17.53;8.17;;;;;;;-2.38;59.87;99585.02;1811624;79;21015;-60
2021/03/12 08:51:44;;;;;;;19.40;8.27;;;;;;;-2.34;59.82;99611.83;1780753;79;21129;-62
2021/03/12 08:54:13;;;;;;;16.27;8.13;;;;;;;-2.36;59.98;99608.56;1756435;80;21161;-60
2021/03/12 08:56:43;;;;;;;12.67;8.70;;;;;;;-2.30;60.08;99590.74;1762025;81;21800;-63
2021/03/12 08:59:11;;;;;;;10.20;7.43;;;;;;;-2.27;59.98;99579.89;1762599;81;21121;-62
2021/03/12 09:01:58;;;;;;;14.23;7.47;;;;;;;-2.28;60.01;99597.50;1785517;79;21144;-60
2021/03/12 09:04:34;;;;;;;13.63;7.73;;;;;;;-2.28;60.17;99569.02;1778202;80;21113;-60
2021/03/12 09:07:05;;;;;;;18.23;10.27;;;;;;;-2.28;60.30;99575.61;1778443;80;21197;-60
2021/03/12 09:09:38;;;;;;;19.85;10.25;;;;;;;-2.21;60.19;99549.72;1783262;80;22363;-61
2021/03/12 09:12:11;;;;;;;15.33;9.87;;;;;;;-2.16;60.13;99556.31;1781026;80;21049;-61
2021/03/12 09:14:51;;;;;;;17.57;8.67;;;;;;;-2.05;59.99;99546.19;1846951;75;27417;-60
2021/03/12 09:17:21;;;;;;;15.67;7.70;;;;;;;-2.03;59.73;99568.42;1811498;79;20999;-62
2021/03/12 09:19:54;;;;;;;13.97;8.37;;;;;;;-2.01;59.76;99570.38;1787320;79;22637;-62
2021/03/12 09:22:28;;;;;;;14.60;8.60;;;;;;;-2.03;59.82;99561.34;1784740;80;20974;-61
2021/03/12 09:24:58;;;;;;;24.43;9.17;;;;;;;-2.01;59.94;99567.25;1784923;80;21019;-62
2021/03/12 09:28:03;;;;;;;21.73;9.63;;;;;;;-2.02;59.84;99557.72;1777582;80;21022;-59
2021/03/12 09:30:42;;;;;;;17.73;8.57;;;;;;;-2.01;59.90;99549.30;1748312;80;21173;-60
2021/03/12 09:33:31;;;;;;;15.20;7.20;;;;;;;-2.03;60.03;99570.56;1809366;79;22489;-61
2021/03/12 09:36:04;;;;;;;17.07;8.73;;;;;;;-2.04;60.23;99539.11;1815916;79;21002;-62
2021/03/12 09:38:38;;;;;;;16.17;7.17;;;;;;;-2.02;60.34;99545.87;1817088;79;21063;-62
2021/03/12 09:41:18;;;;;;;12.13;6.87;;;;;;;-2.02;60.52;99536.64;1790661;78;21121;-61
2021/03/12 09:44:08;;;;;;;9.67;7.23;;;;;;;-2.04;60.61;99539.11;1734662;82;21152;-66
2021/03/12 09:46:41;;;;;;;14.37;8.93;;;;;;;-2.04;60.57;99535.98;1718706;83;21498;-61
2021/03/12 09:49:15;;;;;;;16.37;8.90;;;;;;;-2.02;60.58;99529.23;1719999;82;21172;-61
2021/03/12 09:51:46;;;;;;;13.07;7.53;;;;;;;-1.99;60.65;99527.06;1750138;82;21038;-60
2021/03/12 09:54:16;;;;;;;16.43;9.27;;;;;;;-1.99;60.92;99507.30;1720655;82;21154;-62
2021/03/12 09:56:50;;;;;;;24.93;10.73;;;;;;;-1.97;60.99;99512.41;1762185;81;21514;-62
2021/03/12 09:59:29;;;;;;;11.78;7.67;;;;;;;-1.98;61.04;99522.63;1741699;81;21204;-61
2021/03/12 10:02:33;;;;;;;18.97;9.77;;;;;;;-1.92;61.51;99513.50;1879245;75;26882;-62
2021/03/12 10:05:19;;;;;;;10.63;7.07;;;;;;;-1.93;61.43;99532.14;1789188;79;21014;-63
2021/03/12 10:08:06;;;;;;;10.40;6.13;;;;;;;-1.88;61.45;99526.68;1784971;79;21167;-60
2021/03/12 10:10:56;;;;;;;10.83;5.67;;;;;;;-1.81;61.85;99496.47;1781443;78;21174;-61
2021/03/12 10:13:27;;;;;;;20.10;8.60;;;;;;;-1.76;61.64;99510.77;1784409;79;21081;-67
2021/03/12 10:15:57;;;;;;;22.03;7.37;;;;;;;-1.72;62.21;99491.95;1789559;79;21034;-60
2021/03/12 10:18:34;;;;;;;20.83;9.30;;;;;;;-1.68;62.14;99499.86;1846044;76;27257;-62
2021/03/12 10:21:11;;;;;;;13.20;7.73;;;;;;;-1.69;62.16;99495.58;1801606;79;21011;-62
2021/03/12 10:23:38;;;;;;;23.57;8.03;;;;;;;-1.69;62.76;99497.72;1829371;77;21430;-62
2021/03/12 10:26:10;;;;;;;10.87;6.97;;;;;;;-1.74;63.88;99498.75;1848309;77;21027;-63
2021/03/12 10:28:37;;;;;;;12.73;6.13;;;;;;;-1.75;65.77;99491.83;1752001;79;21073;-60
2021/03/12 10:31:05;;;;;;;15.57;8.80;;;;;;;-1.81;67.26;99486.76;1798553;79;21007;-61
2021/03/12 10:33:33;;;;;;;15.43;9.33;;;;;;;-1.90;68.42;99502.30;1798573;79;21598;-62
2021/03/12 10:36:06;;;;;;;15.53;8.40;;;;;;;-1.92;69.24;99487.16;1802113;79;20967;-62
2021/03/12 10:38:35;;;;;;;11.77;8.53;;;;;;;-1.97;69.22;99492.16;1736841;80;21050;-60
2021/03/12 10:41:18;;;;;;;9.80;6.77;;;;;;;-1.99;70.50;99484.08;1742602;81;21086;-61
2021/03/12 10:44:02;;;;;;;20.50;11.03;;;;;;;-2.00;71.59;99510.92;1801580;79;20979;-62
2021/03/12 10:46:31;;;;;;;19.98;10.38;;;;;;;-2.02;74.73;99469.95;1809035;79;21086;-61
2021/03/12 10:49:02;;;;;;;11.33;5.73;;;;;;;-2.09;77.59;99488.26;1810699;79;21377;-63
2021/03/12 10:51:40;;;;;;;14.47;7.40;;;;;;;-2.12;80.21;99487.80;1746701;82;21191;-62
2021/03/12 10:54:12;;;;;;;24.23;9.40;;;;;;;-2.14;80.97;99480.05;1769789;81;21574;-62
2021/03/12 10:56:47;;;;;;;19.80;10.80;;;;;;;-2.19;81.23;99475.80;1761341;81;21083;-61
2021/03/12 10:59:15;;;;;;;16.57;7.17;;;;;;;-2.21;81.59;99485.70;1760928;81;21138;-60
2021/03/12 11:01:46;;;;;;;12.47;8.07;;;;;;;-2.30;82.83;99478.32;1763815;81;22411;-60
2021/03/12 11:04:16;;;;;;;12.60;8.50;;;;;;;-2.31;84.71;99474.56;1795463;78;21181;-62
2021/03/12 11:06:43;;;;;;;10.03;8.87;;;;;;;-2.39;85.39;99472.77;1775758;79;21151;-61
2021/03/12 11:09:13;;;;;;;13.40;8.43;;;;;;;-2.44;86.65;99490.90;1777502;80;21046;-65
2021/03/12 11:11:43;;;;;;;14.13;10.60;;;;;;;-2.42;88.04;99479.72;1782773;80;21192;-66
2021/03/12 11:14:11;;;;;;;10.83;7.93;;;;;;;-2.42;88.75;99482.84;1735583;82;21276;-63
2021/03/12 11:16:39;;;;;;;15.67;9.40;;;;;;;-2.38;89.58;99482.81;1735184;82;21177;-61
2021/03/12 11:19:07;;;;;;;19.00;10.87;;;;;;;-2.41;90.06;99470.83;1735708;82;21184;-61
2021/03/12 11:21:35;;;;;;;12.13;6.87;;;;;;;-2.40;90.76;99465.07;1736105;82;21178;-61
2021/03/12 11:24:04;;;;;;;16.77;9.57;;;;;;;-2.45;91.11;99463.45;1736043;82;21106;-61
2021/03/12 11:26:32;;;;;;;9.30;7.23;;;;;;;-2.50;91.51;99456.56;1731956;82;21376;-63
2021/03/12 11:28:59;;;;;;;12.07;9.53;;;;;;;-2.45;92.33;99464.77;1707118;84;21181;-61
2021/03/12 11:31:27;;;;;;;18.40;11.33;;;;;;;-2.51;92.45;99454.91;1706907;84;21613;-69
2021/03/12 11:33:55;;;;;;;18.80;11.97;;;;;;;-2.52;93.25;99457.22;1706788;84;21228;-61
2021/03/12 11:36:24;;;;;;;19.43;10.93;;;;;;;-2.45;94.03;99455.55;1712618;82;21602;-64
2021/03/12 11:38:52;;;;;;;14.27;10.43;;;;;;;-2.43;94.03;99440.38;1736293;82;21396;-62
2021/03/12 11:41:19;;;;;;;21.23;12.63;;;;;;;-2.43;93.83;99441.20;1736187;82;21065;-62
2021/03/12 11:43:49;;;;;;;15.93;10.40;;;;;;;-2.44;94.23;99439.56;1736261;82;21045;-65
2021/03/12 11:46:17;;;;;;;27.30;11.83;;;;;;;-2.39;95.04;99431.96;1727637;82;21211;-64
2021/03/12 11:48:45;;;;;;;14.67;11.37;;;;;;;-2.40;95.05;99435.58;1706769;84;21161;-63